Amherst, NH

7:51 PM EDT on May 24, 2015 (GMT -0400)
Amherst Hills | | Change Station
CLOSE
Current Station
Personal Weather Station
Location: Amherst, NH
Elevation: 325 ft
Nearby Weather Stations
Active Advisory: Fire Weather Warning

Elev 325 ft 42.86 °N, 71.62 °W | Updated 1 minute ago

Partly Cloudy
Partly Cloudy
73.9 °F
Feels Like 74 °F
N
0.7
Wind Variable Wind from SW
Gusts 2.2 mph

Today
High -- | Low -- °F
--% Chance of Precip.
Yesterday
High -- | Low -- °F
Precip. -- in
5:15 AM 8:11 PM
Waxing Crescent, 43% visible
Pressure 30.87 in
Visibility 10.0 miles
Clouds Clear
Heat Index 74 °F
Dew Point 12 °F
Humidity 9%
Rainfall 0.00 in
Snow Depth Not available.
UV 1 out of 12
Pollen 10.50 out of 12
Air Quality Not available.
Flu Activity Sporadic
METAR KASH 242251Z 26007KT 10SM CLR 27/03 A3014 RMK AO2 T02660027 SLP452 $

More Conditions Fewer Conditions

Pressure 30.87 in
Visibility 10.0 miles
Clouds Clear
Heat Index 74 °F
Dew Point 12 °F
Humidity 9%
Rainfall 0.00 in
Snow Depth Not available.
UV 1 out of 12
Pollen 10.50 out of 12
Air Quality Not available.
Flu Activity Sporadic
METAR KASH 242251Z 26007KT 10SM CLR 27/03 A3014 RMK AO2 T02660027 SLP452 $

More Conditions Fewer Conditions

10-Day Weather Forecast

Almanac

Astronomy

May. 24, 2015 Rise Set
Actual Time
Civil Twilight
Nautical Twilight
Astronomical Twilight
Moon
Length of Visible Light
Length of Day
Tomorrow will be .
, % of the Moon is Illuminated

Today's Extremes

State Highs State Lows

Community

WunderPhotos

Upload Photos

1,823,895 photos uploaded!

WunderBlogs® & News

Nearby

Air Quality

  Air Quality AQ Index Pollutant
Not available.

Snow Depth

Station Depth Elevation

Earthquake Activity

City Distance Mag. Time & Date
Minimum magnitude displayed is 2.5.

Coastal Water Temperatures

Place Temperature

Stations

Nearby Weather Stations

Station Location Temp. Windchill Dew Point Humidity Wind Precip. Elev Updated Type
                   
Fire Weather Warning
Statement as of 12:35 PM EDT on May 24, 2015

... Red flag warning in effect until 8 PM EDT this evening for
critical fire weather conditions for westernmost maind and
southern New Hampshire...

The National Weather Service in gray has issued a red flag
warning for critical fire weather conditions... which is in effect
until 8 PM EDT this evening.

* Affected area... westernmost Maine and southern New Hampshire.

* Winds... west 10 to 15 mph with gusts up to 20 mph.

* Timing... through 8 PM this evening.

* Relative humidity... as low as 20 percent.

* Temperatures... in the 70s.

* Lightning... none.

* Impacts... any fires may spread rapidly and uncontrollaby.

Precautionary/preparedness actions...

A red flag warning means that critical fire weather conditions
are either occurring now... or will shortly. A combination of
strong winds... low relative humidity... and warm temperatures will
create explosive fire growth potential.


Jc